Thunderstorms From: 21-05-2018 15:00 Until: 22-05-2018 15:00 warning for: Thunderstorms Level: Yellow info button

Although rather usual in this region, locally or potentially dangerous phenomena are expected. (such as local winds, summer thunderstorms, rising streams or high waves) Be aware and pay attention to the latest weather updates, especially if you carry out activities exposed to weather or close to a stream or shoreline. 


Meteo18 Weather Cam more information Meteo18 Weather Cam


warning for Thunderstorms more information blitzortung!


Rain radar more information rain snow radar


Visit our other weather sites:

Template documentation
and downloads

And another site



Weather Underground History page Text

Daily Summary for May 6, 2017 Units:  English    Metric   Both
« Previous Day
Next Day »
Daily Weekly Monthly Yearly Custom
  High: Low: Average:
Temperature: TemperatureC °F 10.8 °F 12.9 °F
Dew Point: DewpointC °F 7.5 °F 10 °F
Humidity: Humidity % 67 % 82 %
Wind Speed: WindSpeedKMH mph 0.0 mph 8.8 mph
Wind Gust: WindSpeedGustKMH mph - -
Wind:- - SSW
Pressure: PressurehPa in 1007.0 in -
Precipitation: 4.3 in    
Historical Graphs
 
 
Tabular Data for May 6, 2017
Time Temperature Dew Point Pressure Wind Wind Speed Wind Gust Humidity Rainfall Rate (Hourly)
TemperatureC °F DewpointC °F PressurehPa in Calm     Humidity % HourlyPrecipMM in
00:02 13.3 °F 7.5 °F 1009.0 in NNE 4.8 mph 11.3 mph 68 % 0.0 in
00:07 13.4 °F 7.6 °F 1009.0 in NE 4.8 mph 11.3 mph 68 % 0.0 in
00:12 13.5 °F 7.5 °F 1009.0 in NE 4.8 mph 11.3 mph 67 % 0.0 in
00:17 13.6 °F 7.6 °F 1009.0 in NNE 8.0 mph 8.0 mph 67 % 0.0 in
00:22 13.5 °F 7.5 °F 1008.7 in NE 8.0 mph 9.7 mph 67 % 0.0 in
00:27 13.4 °F 7.6 °F 1009.0 in NE 4.8 mph 12.9 mph 68 % 0.0 in
00:32 13.3 °F 7.5 °F 1008.7 in NE 3.2 mph 12.9 mph 68 % 0.0 in
00:42 13.1 °F 7.5 °F 1008.7 in NE 6.4 mph 11.3 mph 69 % 0.0 in
00:47 12.9 °F 7.6 °F 1008.7 in NE 6.4 mph 11.3 mph 70 % 0.0 in
00:52 13.0 °F 7.7 °F 1008.7 in NE 4.8 mph 11.3 mph 70 % 0.0 in
00:57 13.0 °F 7.7 °F 1008.7 in NE 3.2 mph 8.0 mph 70 % 0.0 in
01:02 13.0 °F 7.7 °F 1008.7 in NNE 4.8 mph 8.0 mph 70 % 0.0 in
01:07 12.9 °F 7.6 °F 1008.7 in NNE 6.4 mph 9.7 mph 70 % 0.0 in
01:12 13.1 °F 7.8 °F 1008.7 in NE 9.7 mph 9.7 mph 70 % 0.0 in
01:17 13.0 °F 7.9 °F 1008.7 in North 3.2 mph 9.7 mph 71 % 0.0 in
01:22 12.9 °F 7.8 °F 1008.4 in NNE 4.8 mph 9.7 mph 71 % 0.0 in
01:27 12.8 °F 7.9 °F 1008.7 in North 3.2 mph 9.7 mph 72 % 0.0 in
01:32 12.7 °F 7.8 °F 1008.7 in Calm   6.4 mph 72 % 0.0 in
01:37 12.8 °F 7.9 °F 1008.7 in Calm   4.8 mph 72 % 0.0 in
01:42 12.8 °F 7.7 °F 1008.7 in Calm   4.8 mph 71 % 0.0 in
01:47 12.9 °F 7.8 °F 1008.7 in Calm   1.6 mph 71 % 0.0 in
01:52 12.9 °F 7.8 °F 1008.7 in Calm   1.6 mph 71 % 0.0 in
01:57 13.0 °F 7.9 °F 1008.4 in North 1.6 mph 3.2 mph 71 % 0.0 in
02:02 12.9 °F 7.8 °F 1008.4 in Calm   3.2 mph 71 % 0.0 in
02:07 12.9 °F 7.8 °F 1008.4 in NNE 3.2 mph 3.2 mph 71 % 0.0 in
02:12 12.9 °F 8.0 °F 1008.4 in NE 4.8 mph 4.8 mph 72 % 0.0 in
02:17 13.1 °F 8.0 °F 1008.0 in NE 4.8 mph 6.4 mph 71 % 0.0 in
02:22 13.0 °F 8.1 °F 1008.0 in NE 8.0 mph 8.0 mph 72 % 0.0 in
02:27 12.9 °F 8.0 °F 1008.0 in NE 8.0 mph 9.7 mph 72 % 0.0 in
02:32 12.8 °F 7.9 °F 1008.0 in NE 3.2 mph 9.7 mph 72 % 0.0 in
02:37 12.8 °F 8.1 °F 1007.7 in NE 6.4 mph 9.7 mph 73 % 0.0 in
02:42 12.8 °F 8.1 °F 1007.7 in NE 4.8 mph 9.7 mph 73 % 0.0 in
02:47 12.8 °F 8.1 °F 1007.7 in NE 8.0 mph 9.7 mph 73 % 0.0 in
02:52 12.8 °F 8.3 °F 1007.7 in Calm   9.7 mph 74 % 0.0 in
02:57 12.7 °F 8.2 °F 1008.0 in ENE 1.6 mph 9.7 mph 74 % 0.0 in
03:02 12.6 °F 8.1 °F 1008.0 in East 1.6 mph 9.7 mph 74 % 0.0 in
03:07 12.5 °F 8.2 °F 1008.0 in East 3.2 mph 4.8 mph 75 % 0.0 in
03:12 12.4 °F 8.1 °F 1007.7 in ENE 3.2 mph 4.8 mph 75 % 0.0 in
03:17 12.3 °F 8.0 °F 1007.7 in Calm   4.8 mph 75 % 0.0 in
03:22 12.3 °F 8.2 °F 1007.7 in Calm   4.8 mph 76 % 0.0 in
03:27 12.3 °F 8.2 °F 1007.7 in Calm   3.2 mph 76 % 0.0 in
03:32 12.3 °F 8.0 °F 1007.7 in Calm   1.6 mph 75 % 0.0 in
03:37 12.4 °F 8.1 °F 1007.7 in Calm   1.6 mph 75 % 0.0 in
03:42 12.4 °F 8.1 °F 1007.3 in Calm   1.6 mph 75 % 0.0 in
03:47 12.3 °F 8.6 °F 1007.7 in Calm   1.6 mph 78 % 0.0 in
03:52 12.1 °F 8.8 °F 1007.7 in Calm   1.6 mph 80 % 0.0 in
03:57 12.0 °F 8.7 °F 1007.3 in Calm   1.6 mph 80 % 0.0 in
04:02 11.9 °F 8.4 °F 1007.3 in WNW 1.6 mph 1.6 mph 79 % 0.0 in
04:07 11.8 °F 8.5 °F 1007.3 in Calm   3.2 mph 80 % 0.0 in
04:12 11.9 °F 8.7 °F 1007.3 in Calm   3.2 mph 81 % 0.0 in
04:17 11.8 °F 8.8 °F 1007.3 in Calm   3.2 mph 82 % 0.0 in
04:22 11.6 °F 8.8 °F 1007.3 in Calm   3.2 mph 83 % 0.0 in
04:27 11.8 °F 8.6 °F 1007.3 in Calm   3.2 mph 81 % 0.0 in
04:32 11.9 °F 8.7 °F 1007.3 in Calm   1.6 mph 81 % 0.0 in
04:37 11.9 °F 8.7 °F 1007.3 in Calm   1.6 mph 81 % 0.0 in
04:42 11.8 °F 8.8 °F 1007.3 in Calm   1.6 mph 82 % 0.0 in
04:47 11.7 °F 8.9 °F 1007.3 in Calm   1.6 mph 83 % 0.0 in
04:52 11.7 °F 8.9 °F 1007.3 in Calm   1.6 mph 83 % 0.0 in
04:57 11.7 °F 8.9 °F 1007.3 in Calm   1.6 mph 83 % 0.0 in
05:02 11.5 °F 8.9 °F 1007.0 in SSW 1.6 mph 1.6 mph 84 % 0.0 in
05:07 11.4 °F 9.0 °F 1007.0 in Calm   1.6 mph 85 % 0.0 in
05:12 11.3 °F 9.0 °F 1007.3 in Calm   1.6 mph 86 % 0.0 in
05:17 11.2 °F 8.9 °F 1007.3 in Calm   1.6 mph 86 % 0.0 in
05:22 11.2 °F 8.9 °F 1007.3 in Calm   1.6 mph 86 % 0.0 in
05:32 11.2 °F 8.9 °F 1007.3 in Calm   1.6 mph 86 % 0.0 in
05:37 11.2 °F 8.8 °F 1007.3 in Calm   1.6 mph 85 % 0.0 in
05:42 11.2 °F 8.8 °F 1007.3 in Calm   1.6 mph 85 % 0.0 in
05:47 11.2 °F 8.8 °F 1007.3 in Calm   1.6 mph 85 % 0.0 in
05:52 11.2 °F 8.8 °F 1007.3 in Calm   1.6 mph 85 % 0.0 in
05:57 11.2 °F 8.9 °F 1007.3 in Calm   1.6 mph 86 % 0.0 in
06:02 10.9 °F 8.6 °F 1007.7 in Calm   1.6 mph 86 % 0.0 in
06:07 10.8 °F 8.9 °F 1007.7 in Calm   1.6 mph 88 % 0.0 in
06:12 10.8 °F 8.9 °F 1007.3 in Calm   1.6 mph 88 % 0.0 in
06:17 10.9 °F 9.0 °F 1007.3 in Calm   1.6 mph 88 % 0.0 in
06:27 11.2 °F 9.1 °F 1007.3 in Calm   1.6 mph 87 % 0.0 in
06:32 11.1 °F 9.0 °F 1007.7 in Calm   1.6 mph 87 % 0.0 in
06:47 11.0 °F 9.3 °F 1008.0 in SW 3.2 mph 4.8 mph 89 % 0.3 in
06:52 11.0 °F 9.3 °F 1008.0 in Calm   4.8 mph 89 % 0.5 in
06:57 11.0 °F 9.3 °F 1008.0 in SW 3.2 mph 4.8 mph 89 % 0.5 in
07:02 11.2 °F 9.6 °F 1008.0 in WSW 6.4 mph 6.4 mph 90 % 0.5 in
07:07 11.4 °F 9.8 °F 1008.0 in SW 4.8 mph 9.7 mph 90 % 0.8 in
07:12 11.4 °F 9.8 °F 1008.0 in SSW 4.8 mph 9.7 mph 90 % 1.0 in
07:17 11.3 °F 9.7 °F 1008.0 in SW 1.6 mph 9.7 mph 90 % 1.5 in
07:22 11.2 °F 9.8 °F 1008.0 in SW 1.6 mph 9.7 mph 91 % 1.5 in
07:27 11.1 °F 9.8 °F 1008.0 in SSW 3.2 mph 8.0 mph 92 % 1.5 in
07:32 11.1 °F 9.8 °F 1008.0 in SW 3.2 mph 4.8 mph 92 % 1.5 in
07:37 11.1 °F 10.0 °F 1008.4 in SSW 1.6 mph 4.8 mph 93 % 1.5 in
07:42 11.2 °F 10.1 °F 1008.4 in SW 4.8 mph 4.8 mph 93 % 1.5 in
07:47 11.2 °F 10.1 °F 1008.4 in Calm   4.8 mph 93 % 1.5 in
07:52 11.3 °F 10.2 °F 1008.0 in SSW 1.6 mph 4.8 mph 93 % 1.3 in
07:57 11.3 °F 10.2 °F 1008.4 in SSW 3.2 mph 4.8 mph 93 % 1.5 in
08:02 11.3 °F 10.2 °F 1008.4 in SSW 1.6 mph 4.8 mph 93 % 1.5 in
08:07 11.3 °F 10.2 °F 1008.4 in SW 1.6 mph 6.4 mph 93 % 1.5 in
08:17 11.3 °F 10.4 °F 1008.4 in SSW 3.2 mph 6.4 mph 94 % 1.0 in
08:22 11.3 °F 10.4 °F 1008.4 in SW 3.2 mph 4.8 mph 94 % 1.0 in
08:32 11.3 °F 10.4 °F 1008.4 in SSW 6.4 mph 9.7 mph 94 % 1.0 in
08:37 11.3 °F 10.4 °F 1008.4 in South 3.2 mph 9.7 mph 94 % 1.0 in
08:42 11.3 °F 10.4 °F 1008.4 in South 4.8 mph 9.7 mph 94 % 0.8 in
08:47 11.3 °F 10.4 °F 1008.4 in SSW 4.8 mph 8.0 mph 94 % 0.8 in
08:52 11.3 °F 10.4 °F 1008.4 in South 9.7 mph 9.7 mph 94 % 0.8 in
08:57 11.3 °F 10.2 °F 1008.4 in SW 11.3 mph 16.1 mph 93 % 0.5 in
09:02 11.3 °F 10.2 °F 1008.4 in SSW 4.8 mph 16.1 mph 93 % 0.3 in
09:07 11.3 °F 10.2 °F 1008.4 in SSW 4.8 mph 16.1 mph 93 % 0.3 in
09:12 11.3 °F 10.4 °F 1008.0 in SSW 6.4 mph 14.5 mph 94 % 0.3 in
09:17 11.3 °F 10.4 °F 1008.0 in SSW 3.2 mph 12.9 mph 94 % 0.3 in
09:22 11.3 °F 10.4 °F 1008.0 in SW 6.4 mph 14.5 mph 94 % 0.3 in
09:27 11.4 °F 10.5 °F 1008.0 in SSW 4.8 mph 14.5 mph 94 % 0.3 in
09:32 11.5 °F 10.6 °F 1008.0 in South 8.0 mph 14.5 mph 94 % 0.3 in
09:37 11.4 °F 10.5 °F 1007.7 in SW 11.3 mph 12.9 mph 94 % 0.3 in
09:42 11.3 °F 10.4 °F 1007.7 in SSW 6.4 mph 12.9 mph 94 % 0.3 in
09:47 11.3 °F 10.4 °F 1008.0 in SSW 4.8 mph 14.5 mph 94 % 0.3 in
09:52 11.4 °F 10.6 °F 1008.0 in SW 6.4 mph 14.5 mph 95 % 0.3 in
09:57 11.4 °F 10.5 °F 1008.0 in SSW 3.2 mph 11.3 mph 94 % 0.3 in
10:02 11.4 °F 10.5 °F 1008.0 in SE 9.7 mph 11.3 mph 94 % 0.0 in
10:07 11.4 °F 10.6 °F 1008.0 in SSW 6.4 mph 14.5 mph 95 % 0.0 in
10:17 11.4 °F 10.5 °F 1008.0 in SSW 11.3 mph 16.1 mph 94 % 0.0 in
10:22 11.4 °F 10.5 °F 1008.0 in SW 6.4 mph 16.1 mph 94 % 0.0 in
10:27 11.5 °F 10.6 °F 1008.0 in South 11.3 mph 16.1 mph 94 % 0.0 in
10:32 11.5 °F 10.6 °F 1008.0 in SSW 8.0 mph 16.1 mph 94 % 0.0 in
10:37 11.6 °F 10.7 °F 1008.0 in SSW 11.3 mph 16.1 mph 94 % 0.0 in
10:42 11.6 °F 10.7 °F 1008.4 in SW 12.9 mph 16.1 mph 94 % 0.0 in
10:47 11.6 °F 10.7 °F 1008.4 in SW 11.3 mph 16.1 mph 94 % 0.0 in
10:52 11.7 °F 10.9 °F 1008.4 in SSW 8.0 mph 16.1 mph 95 % 0.0 in
10:57 11.7 °F 10.9 °F 1008.4 in SSW 8.0 mph 16.1 mph 95 % 0.0 in
11:02 11.8 °F 11.0 °F 1008.4 in South 4.8 mph 16.1 mph 95 % 0.0 in
11:07 11.9 °F 11.1 °F 1008.4 in SW 9.7 mph 16.1 mph 95 % 0.0 in
11:17 12.3 °F 11.5 °F 1008.4 in SSW 3.2 mph 12.9 mph 95 % 0.0 in
11:22 12.4 °F 11.6 °F 1008.4 in SSE 8.0 mph 12.9 mph 95 % 0.0 in
11:27 12.6 °F 11.8 °F 1008.4 in SSW 8.0 mph 14.5 mph 95 % 0.0 in
11:32 12.6 °F 11.8 °F 1008.4 in WSW 8.0 mph 14.5 mph 95 % 0.0 in
11:37 12.7 °F 11.8 °F 1008.4 in WSW 14.5 mph 14.5 mph 94 % 0.0 in
11:42 12.8 °F 11.9 °F 1008.4 in West 19.3 mph 19.3 mph 94 % 0.0 in
11:47 12.9 °F 12.0 °F 1008.7 in WSW 9.7 mph 20.9 mph 94 % 0.3 in
11:52 12.9 °F 12.0 °F 1008.7 in West 9.7 mph 20.9 mph 94 % 0.3 in
11:57 12.9 °F 12.0 °F 1008.7 in WSW 9.7 mph 20.9 mph 94 % 0.5 in
12:02 13.0 °F 11.9 °F 1008.7 in West 9.7 mph 20.9 mph 93 % 0.5 in
12:12 13.4 °F 12.1 °F 1008.7 in West 14.5 mph 20.9 mph 92 % 0.5 in
12:17 13.4 °F 12.0 °F 1008.7 in WSW 9.7 mph 24.1 mph 91 % 0.5 in
12:22 13.5 °F 12.2 °F 1008.7 in SW 3.2 mph 24.1 mph 92 % 0.5 in
12:32 13.3 °F 12.0 °F 1008.7 in WSW 6.4 mph 22.5 mph 92 % 0.5 in
12:42 13.3 °F 12.2 °F 1008.7 in WSW 11.3 mph 24.1 mph 93 % 0.8 in
12:47 13.6 °F 12.5 °F 1008.7 in SW 6.4 mph 24.1 mph 93 % 0.5 in
12:52 13.9 °F 12.5 °F 1008.7 in WSW 17.7 mph 20.9 mph 91 % 0.5 in
12:57 14.0 °F 12.2 °F 1009.0 in SW 9.7 mph 27.4 mph 89 % 0.5 in
13:02 14.0 °F 12.4 °F 1009.0 in SW 14.5 mph 30.6 mph 90 % 0.5 in
13:07 13.8 °F 12.2 °F 1009.0 in West 16.1 mph 30.6 mph 90 % 0.5 in
13:12 13.7 °F 12.3 °F 1009.0 in SW 9.7 mph 30.6 mph 91 % 0.5 in
13:17 13.6 °F 12.3 °F 1009.0 in SSW 6.4 mph 24.1 mph 92 % 0.5 in
13:22 13.5 °F 12.2 °F 1009.4 in West 4.8 mph 24.1 mph 92 % 0.5 in
13:27 13.3 °F 11.9 °F 1009.0 in WSW 25.7 mph 25.7 mph 91 % 0.8 in
13:32 13.4 °F 12.0 °F 1009.4 in West 16.1 mph 37.0 mph 91 % 0.5 in
13:37 13.7 °F 12.1 °F 1009.4 in WNW 16.1 mph 37.0 mph 90 % 0.5 in
13:42 13.8 °F 12.0 °F 1009.4 in WSW 6.4 mph 37.0 mph 89 % 0.5 in
13:47 13.9 °F 12.1 °F 1009.4 in WSW 12.9 mph 25.7 mph 89 % 0.5 in
13:52 13.9 °F 12.1 °F 1009.4 in SW 17.7 mph 25.7 mph 89 % 0.5 in
13:57 13.8 °F 12.0 °F 1009.4 in West 11.3 mph 25.7 mph 89 % 0.5 in
14:02 13.9 °F 11.8 °F 1009.4 in West 17.7 mph 37.0 mph 87 % 0.5 in
14:07 13.9 °F 11.6 °F 1009.7 in WSW 12.9 mph 38.6 mph 86 % 0.5 in
14:12 14.1 °F 11.6 °F 1009.7 in WSW 29.0 mph 38.6 mph 85 % 0.3 in
14:17 14.0 °F 11.3 °F 1009.7 in WSW 17.7 mph 38.6 mph 84 % 0.3 in
14:22 14.1 °F 11.6 °F 1009.7 in WSW 11.3 mph 37.0 mph 85 % 0.3 in
14:27 14.2 °F 11.7 °F 1009.7 in West 22.5 mph 35.4 mph 85 % 0.0 in
14:32 14.2 °F 11.4 °F 1010.0 in SW 20.9 mph 33.8 mph 83 % 0.0 in
14:37 14.2 °F 11.0 °F 1010.0 in WNW 16.1 mph 32.2 mph 81 % 0.0 in
14:42 14.3 °F 11.1 °F 1010.4 in WNW 16.1 mph 32.2 mph 81 % 0.0 in
14:47 14.4 °F 11.0 °F 1010.4 in West 30.6 mph 32.2 mph 80 % 0.0 in
14:52 14.4 °F 11.0 °F 1010.4 in West 14.5 mph 30.6 mph 80 % 0.0 in
14:57 14.5 °F 10.7 °F 1010.4 in WNW 12.9 mph 37.0 mph 78 % 0.0 in
15:02 14.7 °F 10.5 °F 1010.4 in West 30.6 mph 41.8 mph 76 % 0.0 in
15:07 14.8 °F 10.6 °F 1010.4 in WSW 27.4 mph 41.8 mph 76 % 0.0 in
15:12 14.8 °F 10.6 °F 1010.4 in WSW 19.3 mph 35.4 mph 76 % 0.0 in
15:17 14.9 °F 10.5 °F 1010.7 in WNW 9.7 mph 35.4 mph 75 % 0.0 in
15:22 14.9 °F 10.5 °F 1010.4 in West 30.6 mph 35.4 mph 75 % 0.0 in
15:32 15.1 °F 11.3 °F 1010.7 in SSW 12.9 mph 37.0 mph 78 % 0.0 in
15:37 15.2 °F 11.4 °F 1011.1 in WSW 6.4 mph 32.2 mph 78 % 0.0 in
15:42 15.3 °F 11.3 °F 1011.1 in SW 19.3 mph 25.7 mph 77 % 0.0 in
15:47 15.3 °F 10.7 °F 1011.1 in WSW 20.9 mph 30.6 mph 74 % 0.0 in
15:52 15.3 °F 10.5 °F 1011.1 in WNW 25.7 mph 32.2 mph 73 % 0.0 in
15:57 15.1 °F 10.7 °F 1011.4 in WSW 9.7 mph 35.4 mph 75 % 0.0 in
16:02 14.9 °F 10.3 °F 1011.1 in WSW 14.5 mph 35.4 mph 74 % 0.0 in
16:07 15.0 °F 10.6 °F 1011.1 in West 16.1 mph 35.4 mph 75 % 0.0 in
16:12 15.2 °F 10.6 °F 1011.1 in West 8.0 mph 35.4 mph 74 % 0.0 in
16:17 15.3 °F 10.5 °F 1011.1 in West 19.3 mph 32.2 mph 73 % 0.0 in
16:22 15.4 °F 10.8 °F 1011.4 in SW 9.7 mph 37.0 mph 74 % 0.0 in
16:32 15.7 °F 10.5 °F 1011.4 in WSW 16.1 mph 37.0 mph 71 % 0.0 in
16:37 15.7 °F 10.5 °F 1011.4 in WNW 14.5 mph 35.4 mph 71 % 0.0 in
16:42 15.7 °F 10.5 °F 1011.4 in West 12.9 mph 32.2 mph 71 % 0.0 in
16:47 15.4 °F 10.2 °F 1011.4 in West 17.7 mph 32.2 mph 71 % 0.0 in
16:57 15.1 °F 10.7 °F 1011.7 in WSW 9.7 mph 32.2 mph 75 % 0.0 in
17:02 14.9 °F 10.7 °F 1011.7 in West 9.7 mph 30.6 mph 76 % 0.0 in
17:07 14.7 °F 10.9 °F 1011.7 in West 19.3 mph 25.7 mph 78 % 0.0 in
17:12 14.3 °F 10.9 °F 1011.7 in WSW 19.3 mph 27.4 mph 80 % 0.0 in
17:17 14.1 °F 10.9 °F 1011.7 in West 9.7 mph 27.4 mph 81 % 0.0 in
17:22 14.2 °F 11.2 °F 1011.7 in SW 8.0 mph 25.7 mph 82 % 0.3 in
17:27 14.2 °F 11.2 °F 1011.7 in West 12.9 mph 25.7 mph 82 % 0.3 in
17:32 14.3 °F 11.1 °F 1012.1 in WSW 17.7 mph 27.4 mph 81 % 0.3 in
17:42 14.3 °F 10.9 °F 1011.7 in West 17.7 mph 27.4 mph 80 % 0.3 in
17:52 14.3 °F 10.7 °F 1012.1 in WSW 17.7 mph 27.4 mph 79 % 0.3 in
17:57 14.3 °F 10.5 °F 1012.1 in WSW 25.7 mph 32.2 mph 78 % 0.3 in
18:02 14.2 °F 10.6 °F 1012.1 in SW 20.9 mph 33.8 mph 79 % 0.3 in
18:07 14.2 °F 10.6 °F 1012.1 in SW 9.7 mph 33.8 mph 79 % 0.3 in
18:17 14.0 °F 10.4 °F 1012.1 in SW 6.4 mph 33.8 mph 79 % 0.0 in
18:22 13.9 °F 10.3 °F 1012.1 in SW 8.0 mph 27.4 mph 79 % 0.3 in
18:32 13.9 °F 10.5 °F 1012.4 in WSW 6.4 mph 24.1 mph 80 % 0.3 in
18:42 14.0 °F 10.4 °F 1012.4 in WSW 8.0 mph 24.1 mph 79 % 0.3 in
18:47 14.1 °F 10.5 °F 1012.4 in SW 16.1 mph 24.1 mph 79 % 0.3 in
18:52 14.2 °F 10.6 °F 1012.4 in WSW 11.3 mph 24.1 mph 79 % 0.3 in
18:57 14.3 °F 10.5 °F 1012.4 in WSW 11.3 mph 25.7 mph 78 % 0.3 in
19:02 14.3 °F 10.3 °F 1012.4 in West 22.5 mph 25.7 mph 77 % 0.3 in
19:07 14.4 °F 10.4 °F 1012.4 in WSW 16.1 mph 29.0 mph 77 % 0.3 in
19:12 14.4 °F 10.4 °F 1012.4 in WSW 11.3 mph 29.0 mph 77 % 0.3 in
19:17 14.4 °F 10.4 °F 1012.8 in WSW 12.9 mph 29.0 mph 77 % 0.3 in
19:22 14.4 °F 10.4 °F 1012.4 in WNW 8.0 mph 22.5 mph 77 % 0.0 in
19:27 14.4 °F 10.6 °F 1012.8 in WSW 8.0 mph 19.3 mph 78 % 0.0 in
19:32 14.4 °F 10.6 °F 1012.8 in WSW 11.3 mph 19.3 mph 78 % 0.0 in
19:37 14.4 °F 10.8 °F 1012.8 in WSW 9.7 mph 19.3 mph 79 % 0.0 in
19:42 14.3 °F 10.7 °F 1012.8 in SW 6.4 mph 19.3 mph 79 % 0.0 in
19:47 14.3 °F 10.7 °F 1012.8 in West 8.0 mph 19.3 mph 79 % 0.0 in
19:52 14.4 °F 10.6 °F 1012.8 in WSW 6.4 mph 16.1 mph 78 % 0.0 in
19:57 14.4 °F 10.6 °F 1012.8 in WSW 9.7 mph 16.1 mph 78 % 0.0 in
20:02 14.4 °F 10.6 °F 1012.8 in SW 4.8 mph 17.7 mph 78 % 0.0 in
20:07 14.5 °F 10.5 °F 1013.1 in WSW 6.4 mph 19.3 mph 77 % 0.0 in
20:12 14.4 °F 10.2 °F 1013.1 in WSW 6.4 mph 20.9 mph 76 % 0.0 in
20:17 14.5 °F 10.3 °F 1013.1 in WSW 17.7 mph 20.9 mph 76 % 0.0 in
20:22 14.4 °F 10.2 °F 1013.1 in WSW 9.7 mph 20.9 mph 76 % 0.0 in
20:27 14.4 °F 10.0 °F 1013.1 in West 17.7 mph 22.5 mph 75 % 0.0 in
20:32 14.4 °F 10.0 °F 1013.1 in West 9.7 mph 22.5 mph 75 % 0.0 in
20:37 14.4 °F 10.2 °F 1013.4 in SW 9.7 mph 22.5 mph 76 % 0.0 in
20:42 14.4 °F 10.2 °F 1013.4 in SW 12.9 mph 22.5 mph 76 % 0.0 in
20:47 14.3 °F 10.1 °F 1013.4 in WSW 9.7 mph 19.3 mph 76 % 0.0 in
20:52 14.3 °F 10.1 °F 1013.8 in WSW 8.0 mph 20.9 mph 76 % 0.0 in
20:57 14.3 °F 10.3 °F 1013.8 in SSW 8.0 mph 20.9 mph 77 % 0.0 in
21:02 14.2 °F 10.2 °F 1013.8 in SW 11.3 mph 19.3 mph 77 % 0.0 in
21:07 14.2 °F 10.4 °F 1013.8 in West 11.3 mph 19.3 mph 78 % 0.0 in
21:12 14.2 °F 10.4 °F 1013.8 in SW 16.1 mph 20.9 mph 78 % 0.0 in
21:17 14.1 °F 10.5 °F 1013.8 in SW 20.9 mph 20.9 mph 79 % 0.0 in
21:27 14.0 °F 10.6 °F 1014.1 in SW 12.9 mph 27.4 mph 80 % 0.0 in
21:32 13.9 °F 10.5 °F 1014.1 in SW 16.1 mph 37.0 mph 80 % 0.0 in
21:37 13.8 °F 10.4 °F 1014.1 in SW 17.7 mph 37.0 mph 80 % 0.0 in
21:42 13.7 °F 10.3 °F 1014.1 in WSW 19.3 mph 37.0 mph 80 % 0.0 in
21:47 13.7 °F 10.5 °F 1014.4 in West 20.9 mph 30.6 mph 81 % 0.0 in
21:52 13.6 °F 10.4 °F 1014.4 in SW 16.1 mph 30.6 mph 81 % 0.0 in
22:02 13.4 °F 10.4 °F 1014.4 in West 9.7 mph 30.6 mph 82 % 0.0 in
22:07 13.4 °F 10.6 °F 1014.4 in West 9.7 mph 30.6 mph 83 % 0.0 in
22:12 13.3 °F 10.5 °F 1014.4 in West 12.9 mph 30.6 mph 83 % 0.0 in
22:17 13.2 °F 10.4 °F 1014.4 in WSW 9.7 mph 27.4 mph 83 % 0.0 in
22:22 13.1 °F 10.5 °F 1014.8 in SW 8.0 mph 24.1 mph 84 % 0.0 in
22:27 13.0 °F 10.4 °F 1014.8 in SW 19.3 mph 25.7 mph 84 % 0.0 in
22:32 12.9 °F 10.4 °F 1014.8 in SW 12.9 mph 25.7 mph 85 % 0.0 in
22:37 12.8 °F 10.5 °F 1015.1 in SSW 12.9 mph 25.7 mph 86 % 0.0 in
22:42 12.7 °F 10.4 °F 1015.1 in West 8.0 mph 24.1 mph 86 % 0.0 in
22:47 12.7 °F 10.4 °F 1015.1 in WSW 12.9 mph 25.7 mph 86 % 0.0 in
22:52 12.7 °F 10.4 °F 1015.1 in SW 11.3 mph 30.6 mph 86 % 0.0 in
22:57 12.7 °F 10.4 °F 1015.5 in WSW 22.5 mph 37.0 mph 86 % 0.0 in
23:07 12.6 °F 10.5 °F 1015.5 in West 16.1 mph 37.0 mph 87 % 0.0 in
23:12 12.5 °F 10.4 °F 1015.5 in WSW 20.9 mph 29.0 mph 87 % 0.0 in
23:17 12.4 °F 10.5 °F 1015.5 in WSW 22.5 mph 25.7 mph 88 % 0.0 in
23:22 12.4 °F 10.5 °F 1015.5 in WSW 19.3 mph 29.0 mph 88 % 0.0 in
23:32 12.4 °F 10.5 °F 1015.5 in West 11.3 mph 30.6 mph 88 % 0.0 in
23:37 12.3 °F 10.4 °F 1015.5 in West 11.3 mph 29.0 mph 88 % 0.0 in
23:42 12.3 °F 10.5 °F 1015.5 in WSW 17.7 mph 29.0 mph 89 % 0.0 in
23:47 12.3 °F 10.5 °F 1015.5 in SW 9.7 mph 29.0 mph 89 % 0.0 in
23:52 12.3 °F 10.5 °F 1015.8 in WNW 14.5 mph 32.2 mph 89 % 0.0 in
23:57 12.3 °F 10.5 °F 1015.8 in WSW 8.0 mph 32.2 mph 89 % 0.0 in
Meteo18
Compliments of Weather Underground - 4 mb

Script developed by  Jim McMurry - jmcmurry@mwt.net Adapted for the template by  Wim van der Kuil - Leuven-Template.eu

You find our weather info also at:

European Weather Network

Weather Underground

Equipment we use:

Weather-station
Davis Vue

Weather-program
Meteobridge

Weather-server
Raspberry PI 2 B+

Provider
1 and 1

Davis Vue

Meteobridge

Raspberry PI 2 B+

1 and 1